<?xml version="1.0" encoding="UTF-8" standalone="no" ?>
<gpx xmlns="http://www.topografix.com/GPX/1/1" xmlns:xsi="http://www.w3.org/2001/XMLSchema-instance" xsi:schemaLocation="http://www.topografix.com/GPX/1/1 http://www.topografix.com/GPX/1/1/gpx.xsd" version="1.1" creator="VisuGPX - https://www.visugpx.com">
  <metadata>
    <name>Paris-Sète étape 6 partie 1</name>
  </metadata>
  <trk>
    <name><![CDATA[Paris-Sète étape 6 partie 1_1]]></name>
    <trkseg>
      <trkpt lat="46.38871" lon="1.61958">
        <ele>260.4</ele>
        <time>2022-07-09T05:47:58Z</time>
      </trkpt>
      <trkpt lat="46.38887" lon="1.6195">
        <ele>257.4</ele>
        <time>2022-07-09T05:48:04Z</time>
      </trkpt>
      <trkpt lat="46.38901" lon="1.61947">
        <ele>257.2</ele>
        <time>2022-07-09T05:48:09Z</time>
      </trkpt>
      <trkpt lat="46.38903" lon="1.61957">
        <ele>257.4</ele>
        <time>2022-07-09T05:48:13Z</time>
      </trkpt>
      <trkpt lat="46.38907" lon="1.61973">
        <ele>258.2</ele>
        <time>2022-07-09T05:48:19Z</time>
      </trkpt>
      <trkpt lat="46.38907" lon="1.61975">
        <ele>258.6</ele>
        <time>2022-07-09T05:48:20Z</time>
      </trkpt>
      <trkpt lat="46.38909" lon="1.61988">
        <ele>259.4</ele>
        <time>2022-07-09T05:48:25Z</time>
      </trkpt>
      <trkpt lat="46.38911" lon="1.61997">
        <ele>259.8</ele>
        <time>2022-07-09T05:48:29Z</time>
      </trkpt>
      <trkpt lat="46.38913" lon="1.62011">
        <ele>260.6</ele>
        <time>2022-07-09T05:48:34Z</time>
      </trkpt>
      <trkpt lat="46.38913" lon="1.62014">
        <ele>260.8</ele>
        <time>2022-07-09T05:48:35Z</time>
      </trkpt>
      <trkpt lat="46.38914" lon="1.62029">
        <ele>261.8</ele>
        <time>2022-07-09T05:48:41Z</time>
      </trkpt>
      <trkpt lat="46.38915" lon="1.62034">
        <ele>262.2</ele>
        <time>2022-07-09T05:48:43Z</time>
      </trkpt>
      <trkpt lat="46.38915" lon="1.62036">
        <ele>262.2</ele>
        <time>2022-07-09T05:48:44Z</time>
      </trkpt>
      <trkpt lat="46.38917" lon="1.62046">
        <ele>262.8</ele>
        <time>2022-07-09T05:48:48Z</time>
      </trkpt>
      <trkpt lat="46.38918" lon="1.62049">
        <ele>262.8</ele>
        <time>2022-07-09T05:48:49Z</time>
      </trkpt>
      <trkpt lat="46.38919" lon="1.62065">
        <ele>263.6</ele>
        <time>2022-07-09T05:48:55Z</time>
      </trkpt>
      <trkpt lat="46.38919" lon="1.62071">
        <ele>263.8</ele>
        <time>2022-07-09T05:48:57Z</time>
      </trkpt>
      <trkpt lat="46.38922" lon="1.62092">
        <ele>264.8</ele>
        <time>2022-07-09T05:49:04Z</time>
      </trkpt>
      <trkpt lat="46.38922" lon="1.62095">
        <ele>265</ele>
        <time>2022-07-09T05:49:05Z</time>
      </trkpt>
      <trkpt lat="46.38924" lon="1.6212">
        <ele>265.6</ele>
        <time>2022-07-09T05:49:13Z</time>
      </trkpt>
      <trkpt lat="46.38926" lon="1.62135">
        <ele>266</ele>
        <time>2022-07-09T05:49:17Z</time>
      </trkpt>
      <trkpt lat="46.3893" lon="1.62156">
        <ele>266.4</ele>
        <time>2022-07-09T05:49:23Z</time>
      </trkpt>
      <trkpt lat="46.38929" lon="1.62159">
        <ele>266.6</ele>
        <time>2022-07-09T05:49:24Z</time>
      </trkpt>
      <trkpt lat="46.38926" lon="1.62163">
        <ele>266.8</ele>
        <time>2022-07-09T05:49:26Z</time>
      </trkpt>
      <trkpt lat="46.38917" lon="1.62165">
        <ele>267</ele>
        <time>2022-07-09T05:49:31Z</time>
      </trkpt>
      <trkpt lat="46.38916" lon="1.62164">
        <ele>267</ele>
        <time>2022-07-09T05:49:32Z</time>
      </trkpt>
      <trkpt lat="46.38914" lon="1.62164">
        <ele>267.2</ele>
        <time>2022-07-09T05:49:34Z</time>
      </trkpt>
      <trkpt lat="46.38912" lon="1.62167">
        <ele>267.4</ele>
        <time>2022-07-09T05:49:37Z</time>
      </trkpt>
      <trkpt lat="46.38913" lon="1.62166">
        <ele>267.6</ele>
        <time>2022-07-09T05:49:40Z</time>
      </trkpt>
      <trkpt lat="46.38911" lon="1.62168">
        <ele>267.6</ele>
        <time>2022-07-09T05:49:54Z</time>
      </trkpt>
      <trkpt lat="46.389" lon="1.62168">
        <ele>267.8</ele>
        <time>2022-07-09T05:50:00Z</time>
      </trkpt>
      <trkpt lat="46.38893" lon="1.62168">
        <ele>268</ele>
        <time>2022-07-09T05:50:03Z</time>
      </trkpt>
      <trkpt lat="46.38891" lon="1.62169">
        <ele>268</ele>
        <time>2022-07-09T05:50:04Z</time>
      </trkpt>
      <trkpt lat="46.38888" lon="1.62171">
        <ele>268.2</ele>
        <time>2022-07-09T05:50:06Z</time>
      </trkpt>
      <trkpt lat="46.38873" lon="1.62178">
        <ele>269</ele>
        <time>2022-07-09T05:50:14Z</time>
      </trkpt>
      <trkpt lat="46.3887" lon="1.62179">
        <ele>269.2</ele>
        <time>2022-07-09T05:50:15Z</time>
      </trkpt>
      <trkpt lat="46.38852" lon="1.6219">
        <ele>270.4</ele>
        <time>2022-07-09T05:50:24Z</time>
      </trkpt>
      <trkpt lat="46.38835" lon="1.62209">
        <ele>271.4</ele>
        <time>2022-07-09T05:50:33Z</time>
      </trkpt>
      <trkpt lat="46.38824" lon="1.62219">
        <ele>271.6</ele>
        <time>2022-07-09T05:50:41Z</time>
      </trkpt>
      <trkpt lat="46.38813" lon="1.62231">
        <ele>271.8</ele>
        <time>2022-07-09T05:50:47Z</time>
      </trkpt>
      <trkpt lat="46.38797" lon="1.62247">
        <ele>271.8</ele>
        <time>2022-07-09T05:50:54Z</time>
      </trkpt>
      <trkpt lat="46.38776" lon="1.62265">
        <ele>272.2</ele>
        <time>2022-07-09T05:51:02Z</time>
      </trkpt>
      <trkpt lat="46.38761" lon="1.62276">
        <ele>272.4</ele>
        <time>2022-07-09T05:51:07Z</time>
      </trkpt>
      <trkpt lat="46.38756" lon="1.6228">
        <ele>272.6</ele>
        <time>2022-07-09T05:51:09Z</time>
      </trkpt>
      <trkpt lat="46.38738" lon="1.62289">
        <ele>272.8</ele>
        <time>2022-07-09T05:51:16Z</time>
      </trkpt>
      <trkpt lat="46.38712" lon="1.62294">
        <ele>273.2</ele>
        <time>2022-07-09T05:51:25Z</time>
      </trkpt>
      <trkpt lat="46.38707" lon="1.62296">
        <ele>273.4</ele>
        <time>2022-07-09T05:51:27Z</time>
      </trkpt>
      <trkpt lat="46.387" lon="1.62304">
        <ele>273.6</ele>
        <time>2022-07-09T05:51:30Z</time>
      </trkpt>
      <trkpt lat="46.38695" lon="1.62327">
        <ele>274</ele>
        <time>2022-07-09T05:51:36Z</time>
      </trkpt>
      <trkpt lat="46.38691" lon="1.62372">
        <ele>274</ele>
        <time>2022-07-09T05:51:46Z</time>
      </trkpt>
      <trkpt lat="46.38683" lon="1.62397">
        <ele>274</ele>
        <time>2022-07-09T05:51:52Z</time>
      </trkpt>
      <trkpt lat="46.38669" lon="1.62409">
        <ele>274</ele>
        <time>2022-07-09T05:51:58Z</time>
      </trkpt>
      <trkpt lat="46.38649" lon="1.62416">
        <ele>274.4</ele>
        <time>2022-07-09T05:52:05Z</time>
      </trkpt>
      <trkpt lat="46.38646" lon="1.62417">
        <ele>274.6</ele>
        <time>2022-07-09T05:52:06Z</time>
      </trkpt>
      <trkpt lat="46.38633" lon="1.62424">
        <ele>275.2</ele>
        <time>2022-07-09T05:52:11Z</time>
      </trkpt>
      <trkpt lat="46.38626" lon="1.62429">
        <ele>275.4</ele>
        <time>2022-07-09T05:52:14Z</time>
      </trkpt>
      <trkpt lat="46.38624" lon="1.62431">
        <ele>275.6</ele>
        <time>2022-07-09T05:52:15Z</time>
      </trkpt>
      <trkpt lat="46.38608" lon="1.6245">
        <ele>276.4</ele>
        <time>2022-07-09T05:52:22Z</time>
      </trkpt>
      <trkpt lat="46.3859" lon="1.62473">
        <ele>276</ele>
        <time>2022-07-09T05:52:28Z</time>
      </trkpt>
      <trkpt lat="46.38562" lon="1.62496">
        <ele>275.2</ele>
        <time>2022-07-09T05:52:35Z</time>
      </trkpt>
      <trkpt lat="46.38529" lon="1.62519">
        <ele>274.4</ele>
        <time>2022-07-09T05:52:42Z</time>
      </trkpt>
      <trkpt lat="46.3852" lon="1.62525">
        <ele>274.2</ele>
        <time>2022-07-09T05:52:44Z</time>
      </trkpt>
      <trkpt lat="46.38491" lon="1.6254">
        <ele>273.2</ele>
        <time>2022-07-09T05:52:50Z</time>
      </trkpt>
      <trkpt lat="46.38486" lon="1.62543">
        <ele>273.2</ele>
        <time>2022-07-09T05:52:51Z</time>
      </trkpt>
      <trkpt lat="46.38481" lon="1.62546">
        <ele>273</ele>
        <time>2022-07-09T05:52:52Z</time>
      </trkpt>
      <trkpt lat="46.38443" lon="1.62578">
        <ele>272.2</ele>
        <time>2022-07-09T05:53:00Z</time>
      </trkpt>
      <trkpt lat="46.38418" lon="1.62596">
        <ele>271</ele>
        <time>2022-07-09T05:53:04Z</time>
      </trkpt>
      <trkpt lat="46.38397" lon="1.62607">
        <ele>269.8</ele>
        <time>2022-07-09T05:53:07Z</time>
      </trkpt>
      <trkpt lat="46.38382" lon="1.62616">
        <ele>268.2</ele>
        <time>2022-07-09T05:53:09Z</time>
      </trkpt>
      <trkpt lat="46.38367" lon="1.62627">
        <ele>267</ele>
        <time>2022-07-09T05:53:11Z</time>
      </trkpt>
      <trkpt lat="46.38355" lon="1.62642">
        <ele>266</ele>
        <time>2022-07-09T05:53:13Z</time>
      </trkpt>
      <trkpt lat="46.38351" lon="1.62649">
        <ele>265.4</ele>
        <time>2022-07-09T05:53:14Z</time>
      </trkpt>
      <trkpt lat="46.38346" lon="1.62656">
        <ele>265.2</ele>
        <time>2022-07-09T05:53:15Z</time>
      </trkpt>
      <trkpt lat="46.38343" lon="1.62663">
        <ele>264.8</ele>
        <time>2022-07-09T05:53:16Z</time>
      </trkpt>
      <trkpt lat="46.38331" lon="1.6269">
        <ele>264.4</ele>
        <time>2022-07-09T05:53:20Z</time>
      </trkpt>
      <trkpt lat="46.38323" lon="1.62705">
        <ele>264.4</ele>
        <time>2022-07-09T05:53:23Z</time>
      </trkpt>
      <trkpt lat="46.38313" lon="1.62717">
        <ele>264.6</ele>
        <time>2022-07-09T05:53:26Z</time>
      </trkpt>
      <trkpt lat="46.38309" lon="1.6272">
        <ele>264.6</ele>
        <time>2022-07-09T05:53:27Z</time>
      </trkpt>
      <trkpt lat="46.38297" lon="1.62726">
        <ele>264.6</ele>
        <time>2022-07-09T05:53:30Z</time>
      </trkpt>
      <trkpt lat="46.38293" lon="1.62726">
        <ele>264.6</ele>
        <time>2022-07-09T05:53:31Z</time>
      </trkpt>
      <trkpt lat="46.38285" lon="1.62726">
        <ele>264.8</ele>
        <time>2022-07-09T05:53:33Z</time>
      </trkpt>
      <trkpt lat="46.3827" lon="1.62724">
        <ele>264.8</ele>
        <time>2022-07-09T05:53:37Z</time>
      </trkpt>
      <trkpt lat="46.38265" lon="1.62724">
        <ele>264.8</ele>
        <time>2022-07-09T05:53:38Z</time>
      </trkpt>
      <trkpt lat="46.38257" lon="1.62726">
        <ele>264.8</ele>
        <time>2022-07-09T05:53:40Z</time>
      </trkpt>
      <trkpt lat="46.3825" lon="1.62733">
        <ele>264.8</ele>
        <time>2022-07-09T05:53:42Z</time>
      </trkpt>
      <trkpt lat="46.38247" lon="1.62737">
        <ele>264.8</ele>
        <time>2022-07-09T05:53:43Z</time>
      </trkpt>
      <trkpt lat="46.38242" lon="1.62746">
        <ele>264.8</ele>
        <time>2022-07-09T05:53:45Z</time>
      </trkpt>
      <trkpt lat="46.38235" lon="1.62767">
        <ele>265</ele>
        <time>2022-07-09T05:53:49Z</time>
      </trkpt>
      <trkpt lat="46.38224" lon="1.628">
        <ele>265.8</ele>
        <time>2022-07-09T05:53:56Z</time>
      </trkpt>
      <trkpt lat="46.38219" lon="1.62807">
        <ele>265.8</ele>
        <time>2022-07-09T05:53:58Z</time>
      </trkpt>
      <trkpt lat="46.38198" lon="1.62828">
        <ele>266.6</ele>
        <time>2022-07-09T05:54:05Z</time>
      </trkpt>
      <trkpt lat="46.38194" lon="1.62833">
        <ele>267</ele>
        <time>2022-07-09T05:54:07Z</time>
      </trkpt>
      <trkpt lat="46.38182" lon="1.62843">
        <ele>267.4</ele>
        <time>2022-07-09T05:54:11Z</time>
      </trkpt>
      <trkpt lat="46.38162" lon="1.62861">
        <ele>268</ele>
        <time>2022-07-09T05:54:18Z</time>
      </trkpt>
      <trkpt lat="46.3816" lon="1.62864">
        <ele>268.2</ele>
        <time>2022-07-09T05:54:19Z</time>
      </trkpt>
      <trkpt lat="46.3814" lon="1.62889">
        <ele>268.8</ele>
        <time>2022-07-09T05:54:27Z</time>
      </trkpt>
      <trkpt lat="46.3813" lon="1.62902">
        <ele>269.2</ele>
        <time>2022-07-09T05:54:31Z</time>
      </trkpt>
      <trkpt lat="46.38122" lon="1.62911">
        <ele>269.4</ele>
        <time>2022-07-09T05:54:34Z</time>
      </trkpt>
      <trkpt lat="46.38101" lon="1.62936">
        <ele>270.2</ele>
        <time>2022-07-09T05:54:42Z</time>
      </trkpt>
      <trkpt lat="46.38096" lon="1.62943">
        <ele>270.2</ele>
        <time>2022-07-09T05:54:44Z</time>
      </trkpt>
      <trkpt lat="46.38079" lon="1.62956">
        <ele>270.2</ele>
        <time>2022-07-09T05:54:49Z</time>
      </trkpt>
      <trkpt lat="46.38058" lon="1.62965">
        <ele>270.2</ele>
        <time>2022-07-09T05:54:54Z</time>
      </trkpt>
      <trkpt lat="46.38053" lon="1.62965">
        <ele>270.2</ele>
        <time>2022-07-09T05:54:55Z</time>
      </trkpt>
      <trkpt lat="46.38031" lon="1.62972">
        <ele>270</ele>
        <time>2022-07-09T05:54:59Z</time>
      </trkpt>
      <trkpt lat="46.38026" lon="1.62974">
        <ele>270</ele>
        <time>2022-07-09T05:55:00Z</time>
      </trkpt>
      <trkpt lat="46.38017" lon="1.62982">
        <ele>269.8</ele>
        <time>2022-07-09T05:55:02Z</time>
      </trkpt>
      <trkpt lat="46.38013" lon="1.62986">
        <ele>269.8</ele>
        <time>2022-07-09T05:55:03Z</time>
      </trkpt>
      <trkpt lat="46.38006" lon="1.63">
        <ele>269.6</ele>
        <time>2022-07-09T05:55:05Z</time>
      </trkpt>
      <trkpt lat="46.37998" lon="1.63018">
        <ele>269.4</ele>
        <time>2022-07-09T05:55:08Z</time>
      </trkpt>
      <trkpt lat="46.37997" lon="1.63022">
        <ele>269.4</ele>
        <time>2022-07-09T05:55:09Z</time>
      </trkpt>
      <trkpt lat="46.37987" lon="1.6305">
        <ele>269.6</ele>
        <time>2022-07-09T05:55:14Z</time>
      </trkpt>
      <trkpt lat="46.37974" lon="1.63088">
        <ele>270.4</ele>
        <time>2022-07-09T05:55:22Z</time>
      </trkpt>
      <trkpt lat="46.37967" lon="1.63108">
        <ele>271.2</ele>
        <time>2022-07-09T05:55:27Z</time>
      </trkpt>
      <trkpt lat="46.37964" lon="1.63115">
        <ele>271.4</ele>
        <time>2022-07-09T05:55:29Z</time>
      </trkpt>
      <trkpt lat="46.37957" lon="1.63138">
        <ele>272</ele>
        <time>2022-07-09T05:55:35Z</time>
      </trkpt>
      <trkpt lat="46.37955" lon="1.63141">
        <ele>272.2</ele>
        <time>2022-07-09T05:55:36Z</time>
      </trkpt>
      <trkpt lat="46.37947" lon="1.63162">
        <ele>273.2</ele>
        <time>2022-07-09T05:55:42Z</time>
      </trkpt>
      <trkpt lat="46.37946" lon="1.63165">
        <ele>273.2</ele>
        <time>2022-07-09T05:55:43Z</time>
      </trkpt>
      <trkpt lat="46.37939" lon="1.6318">
        <ele>274.2</ele>
        <time>2022-07-09T05:55:48Z</time>
      </trkpt>
      <trkpt lat="46.37936" lon="1.63187">
        <ele>274.4</ele>
        <time>2022-07-09T05:55:50Z</time>
      </trkpt>
      <trkpt lat="46.37929" lon="1.63198">
        <ele>275.2</ele>
        <time>2022-07-09T05:55:54Z</time>
      </trkpt>
      <trkpt lat="46.37919" lon="1.63212">
        <ele>276</ele>
        <time>2022-07-09T05:55:59Z</time>
      </trkpt>
      <trkpt lat="46.37902" lon="1.63229">
        <ele>276.2</ele>
        <time>2022-07-09T05:56:05Z</time>
      </trkpt>
      <trkpt lat="46.37881" lon="1.63254">
        <ele>276</ele>
        <time>2022-07-09T05:56:12Z</time>
      </trkpt>
      <trkpt lat="46.37858" lon="1.63287">
        <ele>275.6</ele>
        <time>2022-07-09T05:56:20Z</time>
      </trkpt>
      <trkpt lat="46.37838" lon="1.63326">
        <ele>275.8</ele>
        <time>2022-07-09T05:56:29Z</time>
      </trkpt>
      <trkpt lat="46.37818" lon="1.63367">
        <ele>276</ele>
        <time>2022-07-09T05:56:38Z</time>
      </trkpt>
      <trkpt lat="46.37794" lon="1.63409">
        <ele>276</ele>
        <time>2022-07-09T05:56:47Z</time>
      </trkpt>
      <trkpt lat="46.37766" lon="1.63444">
        <ele>275.4</ele>
        <time>2022-07-09T05:56:54Z</time>
      </trkpt>
      <trkpt lat="46.37749" lon="1.63457">
        <ele>274.6</ele>
        <time>2022-07-09T05:56:57Z</time>
      </trkpt>
      <trkpt lat="46.37736" lon="1.63465">
        <ele>274.2</ele>
        <time>2022-07-09T05:56:59Z</time>
      </trkpt>
      <trkpt lat="46.37722" lon="1.63474">
        <ele>273.6</ele>
        <time>2022-07-09T05:57:01Z</time>
      </trkpt>
      <trkpt lat="46.377" lon="1.6349">
        <ele>272.2</ele>
        <time>2022-07-09T05:57:04Z</time>
      </trkpt>
      <trkpt lat="46.37693" lon="1.63496">
        <ele>271.8</ele>
        <time>2022-07-09T05:57:05Z</time>
      </trkpt>
      <trkpt lat="46.37686" lon="1.63504">
        <ele>271.2</ele>
        <time>2022-07-09T05:57:06Z</time>
      </trkpt>
      <trkpt lat="46.37673" lon="1.6352">
        <ele>270</ele>
        <time>2022-07-09T05:57:08Z</time>
      </trkpt>
      <trkpt lat="46.37669" lon="1.63529">
        <ele>269.4</ele>
        <time>2022-07-09T05:57:09Z</time>
      </trkpt>
      <trkpt lat="46.37665" lon="1.63539">
        <ele>268.8</ele>
        <time>2022-07-09T05:57:10Z</time>
      </trkpt>
      <trkpt lat="46.37655" lon="1.63571">
        <ele>267</ele>
        <time>2022-07-09T05:57:13Z</time>
      </trkpt>
      <trkpt lat="46.37653" lon="1.63582">
        <ele>266.6</ele>
        <time>2022-07-09T05:57:14Z</time>
      </trkpt>
      <trkpt lat="46.37648" lon="1.63604">
        <ele>265.4</ele>
        <time>2022-07-09T05:57:16Z</time>
      </trkpt>
      <trkpt lat="46.37644" lon="1.63624">
        <ele>264.6</ele>
        <time>2022-07-09T05:57:18Z</time>
      </trkpt>
      <trkpt lat="46.37642" lon="1.63634">
        <ele>264.4</ele>
        <time>2022-07-09T05:57:19Z</time>
      </trkpt>
      <trkpt lat="46.3764" lon="1.63643">
        <ele>264.2</ele>
        <time>2022-07-09T05:57:20Z</time>
      </trkpt>
      <trkpt lat="46.37634" lon="1.63667">
        <ele>263.6</ele>
        <time>2022-07-09T05:57:23Z</time>
      </trkpt>
      <trkpt lat="46.37632" lon="1.63673">
        <ele>263.6</ele>
        <time>2022-07-09T05:57:24Z</time>
      </trkpt>
      <trkpt lat="46.37629" lon="1.63691">
        <ele>264</ele>
        <time>2022-07-09T05:57:28Z</time>
      </trkpt>
      <trkpt lat="46.37629" lon="1.63695">
        <ele>264.2</ele>
        <time>2022-07-09T05:57:29Z</time>
      </trkpt>
      <trkpt lat="46.37627" lon="1.63705">
        <ele>265</ele>
        <time>2022-07-09T05:57:32Z</time>
      </trkpt>
      <trkpt lat="46.37627" lon="1.6371">
        <ele>265.4</ele>
        <time>2022-07-09T05:57:34Z</time>
      </trkpt>
      <trkpt lat="46.37625" lon="1.63724">
        <ele>266.6</ele>
        <time>2022-07-09T05:57:39Z</time>
      </trkpt>
      <trkpt lat="46.37626" lon="1.63735">
        <ele>267.2</ele>
        <time>2022-07-09T05:57:42Z</time>
      </trkpt>
      <trkpt lat="46.37627" lon="1.63741">
        <ele>267.6</ele>
        <time>2022-07-09T05:57:44Z</time>
      </trkpt>
      <trkpt lat="46.37626" lon="1.63756">
        <ele>268.8</ele>
        <time>2022-07-09T05:57:49Z</time>
      </trkpt>
      <trkpt lat="46.37625" lon="1.63764">
        <ele>269</ele>
        <time>2022-07-09T05:57:51Z</time>
      </trkpt>
      <trkpt lat="46.37621" lon="1.6378">
        <ele>270</ele>
        <time>2022-07-09T05:57:56Z</time>
      </trkpt>
      <trkpt lat="46.37619" lon="1.63788">
        <ele>270.4</ele>
        <time>2022-07-09T05:57:58Z</time>
      </trkpt>
      <trkpt lat="46.37617" lon="1.63799">
        <ele>270.8</ele>
        <time>2022-07-09T05:58:02Z</time>
      </trkpt>
      <trkpt lat="46.37615" lon="1.63804">
        <ele>271.4</ele>
        <time>2022-07-09T05:58:05Z</time>
      </trkpt>
      <trkpt lat="46.37614" lon="1.63811">
        <ele>272</ele>
        <time>2022-07-09T05:58:08Z</time>
      </trkpt>
      <trkpt lat="46.37611" lon="1.63822">
        <ele>273.2</ele>
        <time>2022-07-09T05:58:13Z</time>
      </trkpt>
      <trkpt lat="46.3761" lon="1.63824">
        <ele>273.4</ele>
        <time>2022-07-09T05:58:14Z</time>
      </trkpt>
      <trkpt lat="46.3761" lon="1.63826">
        <ele>273.6</ele>
        <time>2022-07-09T05:58:15Z</time>
      </trkpt>
      <trkpt lat="46.37608" lon="1.63836">
        <ele>274.4</ele>
        <time>2022-07-09T05:58:19Z</time>
      </trkpt>
      <trkpt lat="46.37605" lon="1.63847">
        <ele>275.2</ele>
        <time>2022-07-09T05:58:23Z</time>
      </trkpt>
      <trkpt lat="46.37605" lon="1.63851">
        <ele>275.4</ele>
        <time>2022-07-09T05:58:24Z</time>
      </trkpt>
      <trkpt lat="46.376" lon="1.63866">
        <ele>276.4</ele>
        <time>2022-07-09T05:58:30Z</time>
      </trkpt>
      <trkpt lat="46.37599" lon="1.63869">
        <ele>276.8</ele>
        <time>2022-07-09T05:58:31Z</time>
      </trkpt>
      <trkpt lat="46.37596" lon="1.63877">
        <ele>277.6</ele>
        <time>2022-07-09T05:58:35Z</time>
      </trkpt>
      <trkpt lat="46.37596" lon="1.63884">
        <ele>278</ele>
        <time>2022-07-09T05:58:38Z</time>
      </trkpt>
      <trkpt lat="46.37595" lon="1.63886">
        <ele>278.2</ele>
        <time>2022-07-09T05:58:39Z</time>
      </trkpt>
      <trkpt lat="46.37593" lon="1.6389">
        <ele>279</ele>
        <time>2022-07-09T05:58:41Z</time>
      </trkpt>
      <trkpt lat="46.37592" lon="1.63899">
        <ele>279.6</ele>
        <time>2022-07-09T05:58:45Z</time>
      </trkpt>
      <trkpt lat="46.3759" lon="1.63903">
        <ele>280</ele>
        <time>2022-07-09T05:58:47Z</time>
      </trkpt>
      <trkpt lat="46.3759" lon="1.63905">
        <ele>280.2</ele>
        <time>2022-07-09T05:58:48Z</time>
      </trkpt>
      <trkpt lat="46.37585" lon="1.63916">
        <ele>281.4</ele>
        <time>2022-07-09T05:58:54Z</time>
      </trkpt>
      <trkpt lat="46.37579" lon="1.6393">
        <ele>282.6</ele>
        <time>2022-07-09T05:59:01Z</time>
      </trkpt>
      <trkpt lat="46.37578" lon="1.63934">
        <ele>282.8</ele>
        <time>2022-07-09T05:59:03Z</time>
      </trkpt>
      <trkpt lat="46.37573" lon="1.63947">
        <ele>283.8</ele>
        <time>2022-07-09T05:59:09Z</time>
      </trkpt>
      <trkpt lat="46.37569" lon="1.63959">
        <ele>284.6</ele>
        <time>2022-07-09T05:59:14Z</time>
      </trkpt>
      <trkpt lat="46.37567" lon="1.63965">
        <ele>284.8</ele>
        <time>2022-07-09T05:59:16Z</time>
      </trkpt>
      <trkpt lat="46.37559" lon="1.63986">
        <ele>285.8</ele>
        <time>2022-07-09T05:59:24Z</time>
      </trkpt>
      <trkpt lat="46.37558" lon="1.63989">
        <ele>286</ele>
        <time>2022-07-09T05:59:25Z</time>
      </trkpt>
      <trkpt lat="46.37551" lon="1.64008">
        <ele>286.8</ele>
        <time>2022-07-09T05:59:32Z</time>
      </trkpt>
      <trkpt lat="46.3755" lon="1.64013">
        <ele>287</ele>
        <time>2022-07-09T05:59:34Z</time>
      </trkpt>
      <trkpt lat="46.37542" lon="1.64033">
        <ele>287.8</ele>
        <time>2022-07-09T05:59:41Z</time>
      </trkpt>
      <trkpt lat="46.37538" lon="1.64043">
        <ele>288</ele>
        <time>2022-07-09T05:59:44Z</time>
      </trkpt>
      <trkpt lat="46.37532" lon="1.64059">
        <ele>288.6</ele>
        <time>2022-07-09T05:59:49Z</time>
      </trkpt>
      <trkpt lat="46.37523" lon="1.64089">
        <ele>288.8</ele>
        <time>2022-07-09T05:59:57Z</time>
      </trkpt>
      <trkpt lat="46.37521" lon="1.64101">
        <ele>289</ele>
        <time>2022-07-09T06:00:00Z</time>
      </trkpt>
      <trkpt lat="46.37517" lon="1.64125">
        <ele>289.6</ele>
        <time>2022-07-09T06:00:06Z</time>
      </trkpt>
      <trkpt lat="46.37516" lon="1.64153">
        <ele>290</ele>
        <time>2022-07-09T06:00:13Z</time>
      </trkpt>
      <trkpt lat="46.37515" lon="1.64157">
        <ele>290.2</ele>
        <time>2022-07-09T06:00:14Z</time>
      </trkpt>
      <trkpt lat="46.37511" lon="1.6419">
        <ele>291</ele>
        <time>2022-07-09T06:00:23Z</time>
      </trkpt>
      <trkpt lat="46.3751" lon="1.64202">
        <ele>291.4</ele>
        <time>2022-07-09T06:00:26Z</time>
      </trkpt>
      <trkpt lat="46.37508" lon="1.64219">
        <ele>292</ele>
        <time>2022-07-09T06:00:31Z</time>
      </trkpt>
      <trkpt lat="46.37506" lon="1.64231">
        <ele>292.4</ele>
        <time>2022-07-09T06:00:34Z</time>
      </trkpt>
      <trkpt lat="46.37501" lon="1.64259">
        <ele>293</ele>
        <time>2022-07-09T06:00:42Z</time>
      </trkpt>
      <trkpt lat="46.37498" lon="1.64269">
        <ele>293.6</ele>
        <time>2022-07-09T06:00:45Z</time>
      </trkpt>
      <trkpt lat="46.37492" lon="1.64289">
        <ele>294.2</ele>
        <time>2022-07-09T06:00:51Z</time>
      </trkpt>
      <trkpt lat="46.37488" lon="1.64302">
        <ele>294.6</ele>
        <time>2022-07-09T06:00:55Z</time>
      </trkpt>
      <trkpt lat="46.37482" lon="1.64319">
        <ele>295.4</ele>
        <time>2022-07-09T06:01:00Z</time>
      </trkpt>
      <trkpt lat="46.37478" lon="1.64332">
        <ele>295.8</ele>
        <time>2022-07-09T06:01:04Z</time>
      </trkpt>
      <trkpt lat="46.37473" lon="1.6435">
        <ele>296.4</ele>
        <time>2022-07-09T06:01:09Z</time>
      </trkpt>
      <trkpt lat="46.37469" lon="1.64364">
        <ele>296.8</ele>
        <time>2022-07-09T06:01:13Z</time>
      </trkpt>
      <trkpt lat="46.37463" lon="1.64388">
        <ele>297.8</ele>
        <time>2022-07-09T06:01:20Z</time>
      </trkpt>
      <trkpt lat="46.37462" lon="1.64391">
        <ele>298</ele>
        <time>2022-07-09T06:01:21Z</time>
      </trkpt>
      <trkpt lat="46.37458" lon="1.64415">
        <ele>298.8</ele>
        <time>2022-07-09T06:01:28Z</time>
      </trkpt>
      <trkpt lat="46.37454" lon="1.6442">
        <ele>299</ele>
        <time>2022-07-09T06:01:30Z</time>
      </trkpt>
      <trkpt lat="46.37451" lon="1.64421">
        <ele>299</ele>
        <time>2022-07-09T06:01:31Z</time>
      </trkpt>
      <trkpt lat="46.37448" lon="1.64421">
        <ele>299.2</ele>
        <time>2022-07-09T06:01:32Z</time>
      </trkpt>
      <trkpt lat="46.3742" lon="1.6441">
        <ele>299.8</ele>
        <time>2022-07-09T06:01:41Z</time>
      </trkpt>
      <trkpt lat="46.37387" lon="1.64397">
        <ele>300</ele>
        <time>2022-07-09T06:01:51Z</time>
      </trkpt>
      <trkpt lat="46.37364" lon="1.64382">
        <ele>300.2</ele>
        <time>2022-07-09T06:01:58Z</time>
      </trkpt>
      <trkpt lat="46.3735" lon="1.64373">
        <ele>300.2</ele>
        <time>2022-07-09T06:02:02Z</time>
      </trkpt>
      <trkpt lat="46.37315" lon="1.64348">
        <ele>300.2</ele>
        <time>2022-07-09T06:02:12Z</time>
      </trkpt>
      <trkpt lat="46.37278" lon="1.64327">
        <ele>300.2</ele>
        <time>2022-07-09T06:02:22Z</time>
      </trkpt>
      <trkpt lat="46.37244" lon="1.643">
        <ele>300</ele>
        <time>2022-07-09T06:02:31Z</time>
      </trkpt>
      <trkpt lat="46.37212" lon="1.6427">
        <ele>299.8</ele>
        <time>2022-07-09T06:02:40Z</time>
      </trkpt>
      <trkpt lat="46.37182" lon="1.64242">
        <ele>300.2</ele>
        <time>2022-07-09T06:02:49Z</time>
      </trkpt>
      <trkpt lat="46.37152" lon="1.64219">
        <ele>300.6</ele>
        <time>2022-07-09T06:02:58Z</time>
      </trkpt>
      <trkpt lat="46.37124" lon="1.64197">
        <ele>301.2</ele>
        <time>2022-07-09T06:03:06Z</time>
      </trkpt>
      <trkpt lat="46.37117" lon="1.64192">
        <ele>301.2</ele>
        <time>2022-07-09T06:03:08Z</time>
      </trkpt>
      <trkpt lat="46.37092" lon="1.64164">
        <ele>301.8</ele>
        <time>2022-07-09T06:03:16Z</time>
      </trkpt>
      <trkpt lat="46.37083" lon="1.64133">
        <ele>302.2</ele>
        <time>2022-07-09T06:03:22Z</time>
      </trkpt>
      <trkpt lat="46.37082" lon="1.64127">
        <ele>302.2</ele>
        <time>2022-07-09T06:03:23Z</time>
      </trkpt>
      <trkpt lat="46.37076" lon="1.64095">
        <ele>302.6</ele>
        <time>2022-07-09T06:03:29Z</time>
      </trkpt>
      <trkpt lat="46.37063" lon="1.64057">
        <ele>303</ele>
        <time>2022-07-09T06:03:37Z</time>
      </trkpt>
      <trkpt lat="46.37039" lon="1.64035">
        <ele>303.2</ele>
        <time>2022-07-09T06:03:44Z</time>
      </trkpt>
      <trkpt lat="46.37" lon="1.64006">
        <ele>302.8</ele>
        <time>2022-07-09T06:03:53Z</time>
      </trkpt>
      <trkpt lat="46.36972" lon="1.63984">
        <ele>302</ele>
        <time>2022-07-09T06:03:59Z</time>
      </trkpt>
      <trkpt lat="46.36965" lon="1.63978">
        <ele>301.8</ele>
        <time>2022-07-09T06:04:01Z</time>
      </trkpt>
      <trkpt lat="46.36952" lon="1.63972">
        <ele>302.2</ele>
        <time>2022-07-09T06:04:06Z</time>
      </trkpt>
      <trkpt lat="46.36938" lon="1.63975">
        <ele>302.8</ele>
        <time>2022-07-09T06:04:11Z</time>
      </trkpt>
      <trkpt lat="46.36936" lon="1.63976">
        <ele>303.2</ele>
        <time>2022-07-09T06:04:12Z</time>
      </trkpt>
      <trkpt lat="46.36927" lon="1.63985">
        <ele>304.4</ele>
        <time>2022-07-09T06:04:17Z</time>
      </trkpt>
      <trkpt lat="46.36921" lon="1.63995">
        <ele>305.6</ele>
        <time>2022-07-09T06:04:22Z</time>
      </trkpt>
      <trkpt lat="46.36913" lon="1.6401">
        <ele>306.6</ele>
        <time>2022-07-09T06:04:28Z</time>
      </trkpt>
      <trkpt lat="46.36912" lon="1.64012">
        <ele>307</ele>
        <time>2022-07-09T06:04:29Z</time>
      </trkpt>
      <trkpt lat="46.36904" lon="1.64027">
        <ele>308</ele>
        <time>2022-07-09T06:04:35Z</time>
      </trkpt>
      <trkpt lat="46.36903" lon="1.64029">
        <ele>308</ele>
        <time>2022-07-09T06:04:36Z</time>
      </trkpt>
      <trkpt lat="46.36897" lon="1.64042">
        <ele>309</ele>
        <time>2022-07-09T06:04:41Z</time>
      </trkpt>
      <trkpt lat="46.36891" lon="1.64054">
        <ele>309.8</ele>
        <time>2022-07-09T06:04:46Z</time>
      </trkpt>
      <trkpt lat="46.36888" lon="1.64059">
        <ele>310</ele>
        <time>2022-07-09T06:04:48Z</time>
      </trkpt>
      <trkpt lat="46.36882" lon="1.64071">
        <ele>311</ele>
        <time>2022-07-09T06:04:53Z</time>
      </trkpt>
      <trkpt lat="46.36876" lon="1.64078">
        <ele>311.4</ele>
        <time>2022-07-09T06:04:56Z</time>
      </trkpt>
      <trkpt lat="46.36869" lon="1.64086">
        <ele>312.2</ele>
        <time>2022-07-09T06:05:00Z</time>
      </trkpt>
      <trkpt lat="46.36857" lon="1.64092">
        <ele>312.6</ele>
        <time>2022-07-09T06:05:05Z</time>
      </trkpt>
      <trkpt lat="46.36844" lon="1.64094">
        <ele>313.2</ele>
        <time>2022-07-09T06:05:11Z</time>
      </trkpt>
      <trkpt lat="46.36835" lon="1.64092">
        <ele>313.8</ele>
        <time>2022-07-09T06:05:15Z</time>
      </trkpt>
      <trkpt lat="46.36829" lon="1.64091">
        <ele>314.2</ele>
        <time>2022-07-09T06:05:18Z</time>
      </trkpt>
      <trkpt lat="46.36816" lon="1.6409">
        <ele>315.2</ele>
        <time>2022-07-09T06:05:24Z</time>
      </trkpt>
      <trkpt lat="46.36814" lon="1.6409">
        <ele>315.4</ele>
        <time>2022-07-09T06:05:25Z</time>
      </trkpt>
      <trkpt lat="46.36796" lon="1.6409">
        <ele>316.4</ele>
        <time>2022-07-09T06:05:33Z</time>
      </trkpt>
      <trkpt lat="46.36794" lon="1.64091">
        <ele>316.4</ele>
        <time>2022-07-09T06:05:34Z</time>
      </trkpt>
      <trkpt lat="46.36778" lon="1.64096">
        <ele>317.4</ele>
        <time>2022-07-09T06:05:41Z</time>
      </trkpt>
      <trkpt lat="46.36773" lon="1.64097">
        <ele>317.6</ele>
        <time>2022-07-09T06:05:43Z</time>
      </trkpt>
      <trkpt lat="46.36753" lon="1.64108">
        <ele>318.6</ele>
        <time>2022-07-09T06:05:52Z</time>
      </trkpt>
      <trkpt lat="46.36751" lon="1.64109">
        <ele>318.6</ele>
        <time>2022-07-09T06:05:53Z</time>
      </trkpt>
      <trkpt lat="46.36737" lon="1.64116">
        <ele>319.6</ele>
        <time>2022-07-09T06:05:59Z</time>
      </trkpt>
      <trkpt lat="46.36732" lon="1.64118">
        <ele>319.8</ele>
        <time>2022-07-09T06:06:01Z</time>
      </trkpt>
      <trkpt lat="46.36726" lon="1.6412">
        <ele>320</ele>
        <time>2022-07-09T06:06:03Z</time>
      </trkpt>
      <trkpt lat="46.36705" lon="1.64128">
        <ele>320.6</ele>
        <time>2022-07-09T06:06:11Z</time>
      </trkpt>
      <trkpt lat="46.36702" lon="1.64129">
        <ele>320.8</ele>
        <time>2022-07-09T06:06:12Z</time>
      </trkpt>
      <trkpt lat="46.36681" lon="1.64123">
        <ele>321.6</ele>
        <time>2022-07-09T06:06:19Z</time>
      </trkpt>
      <trkpt lat="46.36679" lon="1.64121">
        <ele>321.8</ele>
        <time>2022-07-09T06:06:20Z</time>
      </trkpt>
      <trkpt lat="46.36659" lon="1.641">
        <ele>323</ele>
        <time>2022-07-09T06:06:29Z</time>
      </trkpt>
      <trkpt lat="46.36639" lon="1.64082">
        <ele>323.4</ele>
        <time>2022-07-09T06:06:37Z</time>
      </trkpt>
      <trkpt lat="46.36617" lon="1.6408">
        <ele>323.8</ele>
        <time>2022-07-09T06:06:44Z</time>
      </trkpt>
      <trkpt lat="46.36602" lon="1.64088">
        <ele>324</ele>
        <time>2022-07-09T06:06:49Z</time>
      </trkpt>
      <trkpt lat="46.36596" lon="1.64093">
        <ele>324</ele>
        <time>2022-07-09T06:06:51Z</time>
      </trkpt>
      <trkpt lat="46.36593" lon="1.64095">
        <ele>324</ele>
        <time>2022-07-09T06:06:52Z</time>
      </trkpt>
      <trkpt lat="46.36559" lon="1.64126">
        <ele>324.4</ele>
        <time>2022-07-09T06:07:03Z</time>
      </trkpt>
      <trkpt lat="46.36514" lon="1.64165">
        <ele>325</ele>
        <time>2022-07-09T06:07:17Z</time>
      </trkpt>
      <trkpt lat="46.36494" lon="1.64182">
        <ele>325.4</ele>
        <time>2022-07-09T06:07:24Z</time>
      </trkpt>
      <trkpt lat="46.3648" lon="1.64195">
        <ele>326</ele>
        <time>2022-07-09T06:07:29Z</time>
      </trkpt>
      <trkpt lat="46.36468" lon="1.64205">
        <ele>326.6</ele>
        <time>2022-07-09T06:07:33Z</time>
      </trkpt>
      <trkpt lat="46.36454" lon="1.64216">
        <ele>327.2</ele>
        <time>2022-07-09T06:07:38Z</time>
      </trkpt>
      <trkpt lat="46.36446" lon="1.64224">
        <ele>327.4</ele>
        <time>2022-07-09T06:07:41Z</time>
      </trkpt>
      <trkpt lat="46.36431" lon="1.64239">
        <ele>328</ele>
        <time>2022-07-09T06:07:47Z</time>
      </trkpt>
      <trkpt lat="46.36427" lon="1.64243">
        <ele>328.2</ele>
        <time>2022-07-09T06:07:49Z</time>
      </trkpt>
      <trkpt lat="46.36419" lon="1.64259">
        <ele>328.4</ele>
        <time>2022-07-09T06:07:53Z</time>
      </trkpt>
      <trkpt lat="46.36407" lon="1.64296">
        <ele>327.8</ele>
        <time>2022-07-09T06:07:59Z</time>
      </trkpt>
      <trkpt lat="46.36405" lon="1.64303">
        <ele>327.8</ele>
        <time>2022-07-09T06:08:00Z</time>
      </trkpt>
      <trkpt lat="46.36391" lon="1.64345">
        <ele>327.2</ele>
        <time>2022-07-09T06:08:07Z</time>
      </trkpt>
      <trkpt lat="46.36388" lon="1.6435">
        <ele>327</ele>
        <time>2022-07-09T06:08:08Z</time>
      </trkpt>
      <trkpt lat="46.36379" lon="1.64366">
        <ele>327</ele>
        <time>2022-07-09T06:08:11Z</time>
      </trkpt>
      <trkpt lat="46.36372" lon="1.64375">
        <ele>326.8</ele>
        <time>2022-07-09T06:08:13Z</time>
      </trkpt>
      <trkpt lat="46.36333" lon="1.64402">
        <ele>326.6</ele>
        <time>2022-07-09T06:08:22Z</time>
      </trkpt>
      <trkpt lat="46.36306" lon="1.64421">
        <ele>326.8</ele>
        <time>2022-07-09T06:08:30Z</time>
      </trkpt>
      <trkpt lat="46.36285" lon="1.64435">
        <ele>327.8</ele>
        <time>2022-07-09T06:08:37Z</time>
      </trkpt>
      <trkpt lat="46.36282" lon="1.64437">
        <ele>328</ele>
        <time>2022-07-09T06:08:38Z</time>
      </trkpt>
      <trkpt lat="46.36263" lon="1.64451">
        <ele>329</ele>
        <time>2022-07-09T06:08:45Z</time>
      </trkpt>
      <trkpt lat="46.36261" lon="1.64453">
        <ele>329.2</ele>
        <time>2022-07-09T06:08:46Z</time>
      </trkpt>
      <trkpt lat="46.36236" lon="1.64471">
        <ele>330.2</ele>
        <time>2022-07-09T06:08:55Z</time>
      </trkpt>
      <trkpt lat="46.36233" lon="1.64473">
        <ele>330.2</ele>
        <time>2022-07-09T06:08:56Z</time>
      </trkpt>
      <trkpt lat="46.36205" lon="1.64493">
        <ele>330.8</ele>
        <time>2022-07-09T06:09:06Z</time>
      </trkpt>
      <trkpt lat="46.36175" lon="1.64512">
        <ele>330.8</ele>
        <time>2022-07-09T06:09:15Z</time>
      </trkpt>
      <trkpt lat="46.36149" lon="1.6453">
        <ele>330.2</ele>
        <time>2022-07-09T06:09:21Z</time>
      </trkpt>
      <trkpt lat="46.36115" lon="1.64544">
        <ele>329.2</ele>
        <time>2022-07-09T06:09:27Z</time>
      </trkpt>
      <trkpt lat="46.36109" lon="1.64545">
        <ele>329</ele>
        <time>2022-07-09T06:09:28Z</time>
      </trkpt>
      <trkpt lat="46.36084" lon="1.64542">
        <ele>327.8</ele>
        <time>2022-07-09T06:09:32Z</time>
      </trkpt>
      <trkpt lat="46.36055" lon="1.64535">
        <ele>326.6</ele>
        <time>2022-07-09T06:09:37Z</time>
      </trkpt>
      <trkpt lat="46.36023" lon="1.64534">
        <ele>325.8</ele>
        <time>2022-07-09T06:09:42Z</time>
      </trkpt>
      <trkpt lat="46.36017" lon="1.64536">
        <ele>325.6</ele>
        <time>2022-07-09T06:09:43Z</time>
      </trkpt>
      <trkpt lat="46.36006" lon="1.64544">
        <ele>325.2</ele>
        <time>2022-07-09T06:09:45Z</time>
      </trkpt>
      <trkpt lat="46.36" lon="1.64549">
        <ele>324.8</ele>
        <time>2022-07-09T06:09:46Z</time>
      </trkpt>
      <trkpt lat="46.35996" lon="1.64556">
        <ele>324.2</ele>
        <time>2022-07-09T06:09:47Z</time>
      </trkpt>
      <trkpt lat="46.35981" lon="1.64582">
        <ele>323.6</ele>
        <time>2022-07-09T06:09:51Z</time>
      </trkpt>
      <trkpt lat="46.35961" lon="1.64612">
        <ele>323.2</ele>
        <time>2022-07-09T06:09:56Z</time>
      </trkpt>
      <trkpt lat="46.35948" lon="1.64626">
        <ele>323</ele>
        <time>2022-07-09T06:09:59Z</time>
      </trkpt>
      <trkpt lat="46.35934" lon="1.64636">
        <ele>323</ele>
        <time>2022-07-09T06:10:02Z</time>
      </trkpt>
      <trkpt lat="46.35924" lon="1.64639">
        <ele>322.8</ele>
        <time>2022-07-09T06:10:04Z</time>
      </trkpt>
      <trkpt lat="46.35881" lon="1.64641">
        <ele>322.2</ele>
        <time>2022-07-09T06:10:12Z</time>
      </trkpt>
      <trkpt lat="46.35875" lon="1.6464">
        <ele>322</ele>
        <time>2022-07-09T06:10:13Z</time>
      </trkpt>
      <trkpt lat="46.35835" lon="1.64641">
        <ele>321</ele>
        <time>2022-07-09T06:10:20Z</time>
      </trkpt>
      <trkpt lat="46.35812" lon="1.64645">
        <ele>320.2</ele>
        <time>2022-07-09T06:10:24Z</time>
      </trkpt>
      <trkpt lat="46.35795" lon="1.64651">
        <ele>319.8</ele>
        <time>2022-07-09T06:10:27Z</time>
      </trkpt>
      <trkpt lat="46.35769" lon="1.64658">
        <ele>319.4</ele>
        <time>2022-07-09T06:10:32Z</time>
      </trkpt>
      <trkpt lat="46.35754" lon="1.6466">
        <ele>319.2</ele>
        <time>2022-07-09T06:10:35Z</time>
      </trkpt>
      <trkpt lat="46.35735" lon="1.6466">
        <ele>319.2</ele>
        <time>2022-07-09T06:10:39Z</time>
      </trkpt>
      <trkpt lat="46.35699" lon="1.64661">
        <ele>319.2</ele>
        <time>2022-07-09T06:10:47Z</time>
      </trkpt>
      <trkpt lat="46.35657" lon="1.64659">
        <ele>319.2</ele>
        <time>2022-07-09T06:10:56Z</time>
      </trkpt>
      <trkpt lat="46.35652" lon="1.64659">
        <ele>319.2</ele>
        <time>2022-07-09T06:10:57Z</time>
      </trkpt>
      <trkpt lat="46.35622" lon="1.64657">
        <ele>318.8</ele>
        <time>2022-07-09T06:11:02Z</time>
      </trkpt>
      <trkpt lat="46.35615" lon="1.64654">
        <ele>318.6</ele>
        <time>2022-07-09T06:11:03Z</time>
      </trkpt>
      <trkpt lat="46.35609" lon="1.6465">
        <ele>318.2</ele>
        <time>2022-07-09T06:11:04Z</time>
      </trkpt>
      <trkpt lat="46.35603" lon="1.64644">
        <ele>318</ele>
        <time>2022-07-09T06:11:05Z</time>
      </trkpt>
      <trkpt lat="46.35598" lon="1.64638">
        <ele>317.6</ele>
        <time>2022-07-09T06:11:06Z</time>
      </trkpt>
      <trkpt lat="46.35594" lon="1.6463">
        <ele>317.4</ele>
        <time>2022-07-09T06:11:07Z</time>
      </trkpt>
      <trkpt lat="46.35588" lon="1.64615">
        <ele>316.8</ele>
        <time>2022-07-09T06:11:09Z</time>
      </trkpt>
      <trkpt lat="46.35582" lon="1.64601">
        <ele>316.4</ele>
        <time>2022-07-09T06:11:11Z</time>
      </trkpt>
      <trkpt lat="46.35574" lon="1.64584">
        <ele>316</ele>
        <time>2022-07-09T06:11:14Z</time>
      </trkpt>
      <trkpt lat="46.35563" lon="1.64581">
        <ele>315.6</ele>
        <time>2022-07-09T06:11:17Z</time>
      </trkpt>
      <trkpt lat="46.35556" lon="1.64587">
        <ele>315.6</ele>
        <time>2022-07-09T06:11:19Z</time>
      </trkpt>
      <trkpt lat="46.35553" lon="1.64592">
        <ele>315.6</ele>
        <time>2022-07-09T06:11:20Z</time>
      </trkpt>
      <trkpt lat="46.35551" lon="1.64597">
        <ele>315.4</ele>
        <time>2022-07-09T06:11:21Z</time>
      </trkpt>
      <trkpt lat="46.35547" lon="1.64609">
        <ele>315.4</ele>
        <time>2022-07-09T06:11:23Z</time>
      </trkpt>
      <trkpt lat="46.35544" lon="1.64623">
        <ele>315.4</ele>
        <time>2022-07-09T06:11:25Z</time>
      </trkpt>
      <trkpt lat="46.35542" lon="1.64637">
        <ele>315.2</ele>
        <time>2022-07-09T06:11:27Z</time>
      </trkpt>
      <trkpt lat="46.35538" lon="1.64666">
        <ele>315.2</ele>
        <time>2022-07-09T06:11:31Z</time>
      </trkpt>
      <trkpt lat="46.35525" lon="1.6471">
        <ele>315.2</ele>
        <time>2022-07-09T06:11:38Z</time>
      </trkpt>
      <trkpt lat="46.35514" lon="1.64748">
        <ele>315.2</ele>
        <time>2022-07-09T06:11:45Z</time>
      </trkpt>
      <trkpt lat="46.35503" lon="1.64787">
        <ele>316.2</ele>
        <time>2022-07-09T06:11:53Z</time>
      </trkpt>
      <trkpt lat="46.355" lon="1.64795">
        <ele>316.4</ele>
        <time>2022-07-09T06:11:55Z</time>
      </trkpt>
      <trkpt lat="46.3549" lon="1.64819">
        <ele>317</ele>
        <time>2022-07-09T06:12:01Z</time>
      </trkpt>
      <trkpt lat="46.35484" lon="1.64836">
        <ele>317.4</ele>
        <time>2022-07-09T06:12:05Z</time>
      </trkpt>
      <trkpt lat="46.35473" lon="1.64862">
        <ele>318</ele>
        <time>2022-07-09T06:12:11Z</time>
      </trkpt>
      <trkpt lat="46.35452" lon="1.64895">
        <ele>318.4</ele>
        <time>2022-07-09T06:12:19Z</time>
      </trkpt>
      <trkpt lat="46.35447" lon="1.64902">
        <ele>318.4</ele>
        <time>2022-07-09T06:12:21Z</time>
      </trkpt>
      <trkpt lat="46.35423" lon="1.64924">
        <ele>318.6</ele>
        <time>2022-07-09T06:12:28Z</time>
      </trkpt>
      <trkpt lat="46.354" lon="1.64927">
        <ele>318.6</ele>
        <time>2022-07-09T06:12:34Z</time>
      </trkpt>
      <trkpt lat="46.35374" lon="1.64933">
        <ele>318.6</ele>
        <time>2022-07-09T06:12:41Z</time>
      </trkpt>
      <trkpt lat="46.35364" lon="1.64934">
        <ele>318.6</ele>
        <time>2022-07-09T06:12:45Z</time>
      </trkpt>
      <trkpt lat="46.35363" lon="1.64934">
        <ele>318.6</ele>
        <time>2022-07-09T06:12:48Z</time>
      </trkpt>
      <trkpt lat="46.35362" lon="1.64939">
        <ele>318.2</ele>
        <time>2022-07-09T06:14:43Z</time>
      </trkpt>
      <trkpt lat="46.35355" lon="1.64951">
        <ele>318.4</ele>
        <time>2022-07-09T06:14:48Z</time>
      </trkpt>
      <trkpt lat="46.35346" lon="1.64967">
        <ele>318.6</ele>
        <time>2022-07-09T06:14:53Z</time>
      </trkpt>
      <trkpt lat="46.35335" lon="1.64984">
        <ele>319</ele>
        <time>2022-07-09T06:14:59Z</time>
      </trkpt>
      <trkpt lat="46.35332" lon="1.64991">
        <ele>319.2</ele>
        <time>2022-07-09T06:15:01Z</time>
      </trkpt>
      <trkpt lat="46.35319" lon="1.65014">
        <ele>320</ele>
        <time>2022-07-09T06:15:08Z</time>
      </trkpt>
      <trkpt lat="46.35311" lon="1.65026">
        <ele>320.4</ele>
        <time>2022-07-09T06:15:12Z</time>
      </trkpt>
      <trkpt lat="46.353" lon="1.65048">
        <ele>321.4</ele>
        <time>2022-07-09T06:15:19Z</time>
      </trkpt>
      <trkpt lat="46.35284" lon="1.65078">
        <ele>322.4</ele>
        <time>2022-07-09T06:15:28Z</time>
      </trkpt>
      <trkpt lat="46.35283" lon="1.65081">
        <ele>322.6</ele>
        <time>2022-07-09T06:15:29Z</time>
      </trkpt>
      <trkpt lat="46.35271" lon="1.65099">
        <ele>323.4</ele>
        <time>2022-07-09T06:15:36Z</time>
      </trkpt>
      <trkpt lat="46.35269" lon="1.65103">
        <ele>323.6</ele>
        <time>2022-07-09T06:15:38Z</time>
      </trkpt>
      <trkpt lat="46.35263" lon="1.65114">
        <ele>324.2</ele>
        <time>2022-07-09T06:15:42Z</time>
      </trkpt>
      <trkpt lat="46.35255" lon="1.65126">
        <ele>324.6</ele>
        <time>2022-07-09T06:15:47Z</time>
      </trkpt>
      <trkpt lat="46.35252" lon="1.65131">
        <ele>325</ele>
        <time>2022-07-09T06:15:49Z</time>
      </trkpt>
      <trkpt lat="46.35249" lon="1.65133">
        <ele>325</ele>
        <time>2022-07-09T06:15:50Z</time>
      </trkpt>
      <trkpt lat="46.35241" lon="1.65145">
        <ele>325.8</ele>
        <time>2022-07-09T06:15:54Z</time>
      </trkpt>
      <trkpt lat="46.3524" lon="1.65149">
        <ele>325.8</ele>
        <time>2022-07-09T06:15:55Z</time>
      </trkpt>
      <trkpt lat="46.35231" lon="1.65174">
        <ele>326.2</ele>
        <time>2022-07-09T06:16:01Z</time>
      </trkpt>
      <trkpt lat="46.35219" lon="1.65197">
        <ele>326.8</ele>
        <time>2022-07-09T06:16:07Z</time>
      </trkpt>
      <trkpt lat="46.35213" lon="1.65208">
        <ele>327.2</ele>
        <time>2022-07-09T06:16:10Z</time>
      </trkpt>
      <trkpt lat="46.35193" lon="1.65254">
        <ele>327.8</ele>
        <time>2022-07-09T06:16:21Z</time>
      </trkpt>
      <trkpt lat="46.35181" lon="1.65288">
        <ele>327.4</ele>
        <time>2022-07-09T06:16:27Z</time>
      </trkpt>
      <trkpt lat="46.35164" lon="1.65337">
        <ele>326.6</ele>
        <time>2022-07-09T06:16:34Z</time>
      </trkpt>
      <trkpt lat="46.35161" lon="1.65346">
        <ele>326.2</ele>
        <time>2022-07-09T06:16:35Z</time>
      </trkpt>
      <trkpt lat="46.35155" lon="1.65362">
        <ele>325.6</ele>
        <time>2022-07-09T06:16:37Z</time>
      </trkpt>
      <trkpt lat="46.3515" lon="1.65378">
        <ele>325.2</ele>
        <time>2022-07-09T06:16:39Z</time>
      </trkpt>
      <trkpt lat="46.3514" lon="1.65401">
        <ele>324.6</ele>
        <time>2022-07-09T06:16:42Z</time>
      </trkpt>
      <trkpt lat="46.35133" lon="1.65423">
        <ele>324.2</ele>
        <time>2022-07-09T06:16:45Z</time>
      </trkpt>
      <trkpt lat="46.35132" lon="1.6543">
        <ele>324</ele>
        <time>2022-07-09T06:16:46Z</time>
      </trkpt>
      <trkpt lat="46.3513" lon="1.65435">
        <ele>323.8</ele>
        <time>2022-07-09T06:16:47Z</time>
      </trkpt>
      <trkpt lat="46.35127" lon="1.6544">
        <ele>323.6</ele>
        <time>2022-07-09T06:16:48Z</time>
      </trkpt>
      <trkpt lat="46.35123" lon="1.65443">
        <ele>323.4</ele>
        <time>2022-07-09T06:16:49Z</time>
      </trkpt>
      <trkpt lat="46.35109" lon="1.65443">
        <ele>323.2</ele>
        <time>2022-07-09T06:16:53Z</time>
      </trkpt>
      <trkpt lat="46.35093" lon="1.65437">
        <ele>323.4</ele>
        <time>2022-07-09T06:16:59Z</time>
      </trkpt>
      <trkpt lat="46.35081" lon="1.65434">
        <ele>324</ele>
        <time>2022-07-09T06:17:04Z</time>
      </trkpt>
      <trkpt lat="46.3507" lon="1.65431">
        <ele>324.8</ele>
        <time>2022-07-09T06:17:09Z</time>
      </trkpt>
      <trkpt lat="46.35068" lon="1.65431">
        <ele>325</ele>
        <time>2022-07-09T06:17:10Z</time>
      </trkpt>
      <trkpt lat="46.35054" lon="1.65429">
        <ele>326</ele>
        <time>2022-07-09T06:17:17Z</time>
      </trkpt>
      <trkpt lat="46.35053" lon="1.65429">
        <ele>326.2</ele>
        <time>2022-07-09T06:17:18Z</time>
      </trkpt>
      <trkpt lat="46.35051" lon="1.65428">
        <ele>326.2</ele>
        <time>2022-07-09T06:17:19Z</time>
      </trkpt>
      <trkpt lat="46.3505" lon="1.65428">
        <ele>326.4</ele>
        <time>2022-07-09T06:17:20Z</time>
      </trkpt>
      <trkpt lat="46.35044" lon="1.6543">
        <ele>326.6</ele>
        <time>2022-07-09T06:17:24Z</time>
      </trkpt>
      <trkpt lat="46.35043" lon="1.6543">
        <ele>326.6</ele>
        <time>2022-07-09T06:17:25Z</time>
      </trkpt>
      <trkpt lat="46.35037" lon="1.6543">
        <ele>327.4</ele>
        <time>2022-07-09T06:17:29Z</time>
      </trkpt>
      <trkpt lat="46.35022" lon="1.65433">
        <ele>328.2</ele>
        <time>2022-07-09T06:17:36Z</time>
      </trkpt>
      <trkpt lat="46.35016" lon="1.65434">
        <ele>328.4</ele>
        <time>2022-07-09T06:17:39Z</time>
      </trkpt>
      <trkpt lat="46.35003" lon="1.65438">
        <ele>328.8</ele>
        <time>2022-07-09T06:17:44Z</time>
      </trkpt>
      <trkpt lat="46.3499" lon="1.65439">
        <ele>329.4</ele>
        <time>2022-07-09T06:17:49Z</time>
      </trkpt>
      <trkpt lat="46.34983" lon="1.65442">
        <ele>329.6</ele>
        <time>2022-07-09T06:17:52Z</time>
      </trkpt>
      <trkpt lat="46.34964" lon="1.65447">
        <ele>331.6</ele>
        <time>2022-07-09T06:18:00Z</time>
      </trkpt>
      <trkpt lat="46.34955" lon="1.65449">
        <ele>330.4</ele>
        <time>2022-07-09T06:18:05Z</time>
      </trkpt>
      <trkpt lat="46.3495" lon="1.65449">
        <ele>330.6</ele>
        <time>2022-07-09T06:18:08Z</time>
      </trkpt>
      <trkpt lat="46.34926" lon="1.65456">
        <ele>331.4</ele>
        <time>2022-07-09T06:18:16Z</time>
      </trkpt>
      <trkpt lat="46.34925" lon="1.65457">
        <ele>331.6</ele>
        <time>2022-07-09T06:18:17Z</time>
      </trkpt>
      <trkpt lat="46.34907" lon="1.65457">
        <ele>332.6</ele>
        <time>2022-07-09T06:18:25Z</time>
      </trkpt>
      <trkpt lat="46.34877" lon="1.65459">
        <ele>333.4</ele>
        <time>2022-07-09T06:18:35Z</time>
      </trkpt>
      <trkpt lat="46.34874" lon="1.65461">
        <ele>333.6</ele>
        <time>2022-07-09T06:18:37Z</time>
      </trkpt>
      <trkpt lat="46.34866" lon="1.65466">
        <ele>334</ele>
        <time>2022-07-09T06:18:41Z</time>
      </trkpt>
      <trkpt lat="46.34857" lon="1.65468">
        <ele>334.4</ele>
        <time>2022-07-09T06:18:46Z</time>
      </trkpt>
      <trkpt lat="46.34845" lon="1.6547">
        <ele>334.8</ele>
        <time>2022-07-09T06:18:50Z</time>
      </trkpt>
      <trkpt lat="46.34826" lon="1.65465">
        <ele>335.4</ele>
        <time>2022-07-09T06:18:57Z</time>
      </trkpt>
      <trkpt lat="46.34812" lon="1.65448">
        <ele>335.8</ele>
        <time>2022-07-09T06:19:03Z</time>
      </trkpt>
      <trkpt lat="46.3481" lon="1.65445">
        <ele>335.8</ele>
        <time>2022-07-09T06:19:04Z</time>
      </trkpt>
      <trkpt lat="46.34795" lon="1.65419">
        <ele>336.4</ele>
        <time>2022-07-09T06:19:12Z</time>
      </trkpt>
      <trkpt lat="46.34775" lon="1.65385">
        <ele>336.6</ele>
        <time>2022-07-09T06:19:21Z</time>
      </trkpt>
      <trkpt lat="46.34756" lon="1.65352">
        <ele>336.6</ele>
        <time>2022-07-09T06:19:30Z</time>
      </trkpt>
      <trkpt lat="46.34755" lon="1.65348">
        <ele>336.8</ele>
        <time>2022-07-09T06:19:31Z</time>
      </trkpt>
      <trkpt lat="46.34738" lon="1.65317">
        <ele>337.6</ele>
        <time>2022-07-09T06:19:39Z</time>
      </trkpt>
      <trkpt lat="46.34721" lon="1.6529">
        <ele>338</ele>
        <time>2022-07-09T06:19:46Z</time>
      </trkpt>
      <trkpt lat="46.34717" lon="1.6528">
        <ele>338</ele>
        <time>2022-07-09T06:19:48Z</time>
      </trkpt>
      <trkpt lat="46.34697" lon="1.65248">
        <ele>338.8</ele>
        <time>2022-07-09T06:19:56Z</time>
      </trkpt>
      <trkpt lat="46.34691" lon="1.65235">
        <ele>339</ele>
        <time>2022-07-09T06:19:59Z</time>
      </trkpt>
      <trkpt lat="46.34678" lon="1.65212">
        <ele>339.6</ele>
        <time>2022-07-09T06:20:05Z</time>
      </trkpt>
      <trkpt lat="46.34661" lon="1.6518">
        <ele>340</ele>
        <time>2022-07-09T06:20:13Z</time>
      </trkpt>
      <trkpt lat="46.34647" lon="1.65152">
        <ele>340.2</ele>
        <time>2022-07-09T06:20:21Z</time>
      </trkpt>
      <trkpt lat="46.34632" lon="1.65128">
        <ele>340.2</ele>
        <time>2022-07-09T06:20:27Z</time>
      </trkpt>
      <trkpt lat="46.34613" lon="1.65097">
        <ele>340.8</ele>
        <time>2022-07-09T06:20:35Z</time>
      </trkpt>
      <trkpt lat="46.34602" lon="1.65077">
        <ele>341.2</ele>
        <time>2022-07-09T06:20:40Z</time>
      </trkpt>
      <trkpt lat="46.34593" lon="1.65062">
        <ele>341.4</ele>
        <time>2022-07-09T06:20:44Z</time>
      </trkpt>
      <trkpt lat="46.34581" lon="1.65042">
        <ele>341.8</ele>
        <time>2022-07-09T06:20:50Z</time>
      </trkpt>
      <trkpt lat="46.3458" lon="1.65041">
        <ele>341.8</ele>
        <time>2022-07-09T06:20:51Z</time>
      </trkpt>
      <trkpt lat="46.34578" lon="1.65042">
        <ele>341.8</ele>
        <time>2022-07-09T06:20:52Z</time>
      </trkpt>
      <trkpt lat="46.34572" lon="1.6505">
        <ele>342.2</ele>
        <time>2022-07-09T06:20:55Z</time>
      </trkpt>
      <trkpt lat="46.34552" lon="1.65072">
        <ele>341.6</ele>
        <time>2022-07-09T06:21:02Z</time>
      </trkpt>
      <trkpt lat="46.34541" lon="1.65081">
        <ele>341</ele>
        <time>2022-07-09T06:21:06Z</time>
      </trkpt>
      <trkpt lat="46.34535" lon="1.6509">
        <ele>340.8</ele>
        <time>2022-07-09T06:21:08Z</time>
      </trkpt>
      <trkpt lat="46.34532" lon="1.65092">
        <ele>340.6</ele>
        <time>2022-07-09T06:21:09Z</time>
      </trkpt>
      <trkpt lat="46.3452" lon="1.65093">
        <ele>340.2</ele>
        <time>2022-07-09T06:21:14Z</time>
      </trkpt>
      <trkpt lat="46.3452" lon="1.65093">
        <ele>340</ele>
        <time>2022-07-09T06:21:17Z</time>
      </trkpt>
      <trkpt lat="46.3452" lon="1.65096">
        <ele>340</ele>
        <time>2022-07-09T06:21:20Z</time>
      </trkpt>
      <trkpt lat="46.34519" lon="1.65098">
        <ele>340</ele>
        <time>2022-07-09T06:21:21Z</time>
      </trkpt>
      <trkpt lat="46.34519" lon="1.65099">
        <ele>340</ele>
        <time>2022-07-09T06:21:22Z</time>
      </trkpt>
      <trkpt lat="46.34517" lon="1.65102">
        <ele>340.2</ele>
        <time>2022-07-09T06:21:26Z</time>
      </trkpt>
      <trkpt lat="46.34514" lon="1.65104">
        <ele>340.2</ele>
        <time>2022-07-09T06:21:34Z</time>
      </trkpt>
      <trkpt lat="46.34508" lon="1.6511">
        <ele>340.4</ele>
        <time>2022-07-09T06:21:38Z</time>
      </trkpt>
      <trkpt lat="46.34502" lon="1.65115">
        <ele>340.4</ele>
        <time>2022-07-09T06:21:40Z</time>
      </trkpt>
      <trkpt lat="46.34488" lon="1.65126">
        <ele>339.8</ele>
        <time>2022-07-09T06:21:44Z</time>
      </trkpt>
      <trkpt lat="46.34481" lon="1.65131">
        <ele>339.6</ele>
        <time>2022-07-09T06:21:46Z</time>
      </trkpt>
      <trkpt lat="46.34467" lon="1.65142">
        <ele>339.2</ele>
        <time>2022-07-09T06:21:50Z</time>
      </trkpt>
      <trkpt lat="46.34462" lon="1.65144">
        <ele>339</ele>
        <time>2022-07-09T06:21:51Z</time>
      </trkpt>
      <trkpt lat="46.34449" lon="1.65155">
        <ele>338.6</ele>
        <time>2022-07-09T06:21:54Z</time>
      </trkpt>
      <trkpt lat="46.34445" lon="1.65161">
        <ele>338.2</ele>
        <time>2022-07-09T06:21:56Z</time>
      </trkpt>
      <trkpt lat="46.34436" lon="1.65168">
        <ele>337.4</ele>
        <time>2022-07-09T06:21:58Z</time>
      </trkpt>
      <trkpt lat="46.34428" lon="1.65171">
        <ele>337.2</ele>
        <time>2022-07-09T06:22:01Z</time>
      </trkpt>
      <trkpt lat="46.34422" lon="1.65175">
        <ele>336.8</ele>
        <time>2022-07-09T06:22:08Z</time>
      </trkpt>
      <trkpt lat="46.34419" lon="1.65177">
        <ele>336.8</ele>
        <time>2022-07-09T06:22:09Z</time>
      </trkpt>
      <trkpt lat="46.34415" lon="1.65182">
        <ele>336.6</ele>
        <time>2022-07-09T06:22:11Z</time>
      </trkpt>
      <trkpt lat="46.34411" lon="1.65188">
        <ele>336.4</ele>
        <time>2022-07-09T06:22:13Z</time>
      </trkpt>
      <trkpt lat="46.34409" lon="1.6519">
        <ele>336.4</ele>
        <time>2022-07-09T06:22:14Z</time>
      </trkpt>
      <trkpt lat="46.34403" lon="1.65202">
        <ele>336.4</ele>
        <time>2022-07-09T06:22:17Z</time>
      </trkpt>
      <trkpt lat="46.34399" lon="1.65205">
        <ele>336.2</ele>
        <time>2022-07-09T06:22:19Z</time>
      </trkpt>
      <trkpt lat="46.34387" lon="1.65207">
        <ele>335.8</ele>
        <time>2022-07-09T06:22:26Z</time>
      </trkpt>
      <trkpt lat="46.34386" lon="1.65207">
        <ele>335.8</ele>
        <time>2022-07-09T06:22:27Z</time>
      </trkpt>
      <trkpt lat="46.34379" lon="1.65203">
        <ele>335.6</ele>
        <time>2022-07-09T06:22:30Z</time>
      </trkpt>
      <trkpt lat="46.34377" lon="1.65201">
        <ele>335.6</ele>
        <time>2022-07-09T06:22:32Z</time>
      </trkpt>
      <trkpt lat="46.34377" lon="1.652">
        <ele>335.4</ele>
        <time>2022-07-09T06:22:33Z</time>
      </trkpt>
      <trkpt lat="46.34375" lon="1.65198">
        <ele>335.4</ele>
        <time>2022-07-09T06:22:34Z</time>
      </trkpt>
      <trkpt lat="46.34371" lon="1.65197">
        <ele>335.2</ele>
        <time>2022-07-09T06:22:38Z</time>
      </trkpt>
      <trkpt lat="46.34366" lon="1.65198">
        <ele>335.2</ele>
        <time>2022-07-09T06:22:43Z</time>
      </trkpt>
      <trkpt lat="46.34364" lon="1.65199">
        <ele>335.2</ele>
        <time>2022-07-09T06:22:44Z</time>
      </trkpt>
      <trkpt lat="46.3436" lon="1.65199">
        <ele>334.6</ele>
        <time>2022-07-09T06:22:50Z</time>
      </trkpt>
      <trkpt lat="46.3435" lon="1.65201">
        <ele>334.2</ele>
        <time>2022-07-09T06:23:07Z</time>
      </trkpt>
      <trkpt lat="46.34346" lon="1.65202">
        <ele>334.2</ele>
        <time>2022-07-09T06:23:08Z</time>
      </trkpt>
      <trkpt lat="46.34338" lon="1.65205">
        <ele>334.2</ele>
        <time>2022-07-09T06:23:10Z</time>
      </trkpt>
      <trkpt lat="46.34328" lon="1.65209">
        <ele>334</ele>
        <time>2022-07-09T06:23:13Z</time>
      </trkpt>
      <trkpt lat="46.34319" lon="1.65212">
        <ele>333.8</ele>
        <time>2022-07-09T06:23:15Z</time>
      </trkpt>
      <trkpt lat="46.34309" lon="1.65217">
        <ele>333.6</ele>
        <time>2022-07-09T06:23:20Z</time>
      </trkpt>
      <trkpt lat="46.34296" lon="1.6522">
        <ele>333.6</ele>
        <time>2022-07-09T06:23:26Z</time>
      </trkpt>
      <trkpt lat="46.34283" lon="1.6522">
        <ele>333.8</ele>
        <time>2022-07-09T06:23:31Z</time>
      </trkpt>
      <trkpt lat="46.3428" lon="1.65221">
        <ele>333.8</ele>
        <time>2022-07-09T06:23:32Z</time>
      </trkpt>
      <trkpt lat="46.34268" lon="1.65227">
        <ele>333.8</ele>
        <time>2022-07-09T06:23:35Z</time>
      </trkpt>
      <trkpt lat="46.34253" lon="1.65236">
        <ele>333.8</ele>
        <time>2022-07-09T06:23:39Z</time>
      </trkpt>
      <trkpt lat="46.34241" lon="1.65243">
        <ele>333.2</ele>
        <time>2022-07-09T06:23:43Z</time>
      </trkpt>
      <trkpt lat="46.34235" lon="1.65244">
        <ele>333.2</ele>
        <time>2022-07-09T06:23:44Z</time>
      </trkpt>
      <trkpt lat="46.34221" lon="1.65252">
        <ele>333</ele>
        <time>2022-07-09T06:23:46Z</time>
      </trkpt>
      <trkpt lat="46.34219" lon="1.65253">
        <ele>332.8</ele>
        <time>2022-07-09T06:23:47Z</time>
      </trkpt>
      <trkpt lat="46.34215" lon="1.6525">
        <ele>332.8</ele>
        <time>2022-07-09T06:23:49Z</time>
      </trkpt>
      <trkpt lat="46.34198" lon="1.65242">
        <ele>333</ele>
        <time>2022-07-09T06:23:58Z</time>
      </trkpt>
      <trkpt lat="46.34196" lon="1.65241">
        <ele>333.2</ele>
        <time>2022-07-09T06:23:59Z</time>
      </trkpt>
      <trkpt lat="46.34193" lon="1.65237">
        <ele>333.2</ele>
        <time>2022-07-09T06:24:01Z</time>
      </trkpt>
      <trkpt lat="46.34185" lon="1.65232">
        <ele>333.6</ele>
        <time>2022-07-09T06:24:03Z</time>
      </trkpt>
      <trkpt lat="46.34174" lon="1.65229">
        <ele>333.8</ele>
        <time>2022-07-09T06:24:07Z</time>
      </trkpt>
      <trkpt lat="46.34169" lon="1.65223">
        <ele>333.6</ele>
        <time>2022-07-09T06:24:09Z</time>
      </trkpt>
      <trkpt lat="46.34148" lon="1.65197">
        <ele>333.6</ele>
        <time>2022-07-09T06:24:16Z</time>
      </trkpt>
      <trkpt lat="46.34135" lon="1.65182">
        <ele>333.4</ele>
        <time>2022-07-09T06:24:20Z</time>
      </trkpt>
      <trkpt lat="46.34132" lon="1.65178">
        <ele>333.6</ele>
        <time>2022-07-09T06:24:21Z</time>
      </trkpt>
      <trkpt lat="46.34121" lon="1.65169">
        <ele>333.4</ele>
        <time>2022-07-09T06:24:24Z</time>
      </trkpt>
      <trkpt lat="46.34114" lon="1.65158">
        <ele>333.4</ele>
        <time>2022-07-09T06:24:26Z</time>
      </trkpt>
      <trkpt lat="46.34092" lon="1.65145">
        <ele>333</ele>
        <time>2022-07-09T06:24:31Z</time>
      </trkpt>
      <trkpt lat="46.34078" lon="1.65149">
        <ele>332.6</ele>
        <time>2022-07-09T06:24:36Z</time>
      </trkpt>
      <trkpt lat="46.34073" lon="1.6516">
        <ele>332.8</ele>
        <time>2022-07-09T06:24:39Z</time>
      </trkpt>
      <trkpt lat="46.34068" lon="1.65172">
        <ele>332.8</ele>
        <time>2022-07-09T06:24:42Z</time>
      </trkpt>
      <trkpt lat="46.34059" lon="1.65208">
        <ele>332.8</ele>
        <time>2022-07-09T06:24:48Z</time>
      </trkpt>
      <trkpt lat="46.34047" lon="1.65249">
        <ele>332</ele>
        <time>2022-07-09T06:24:56Z</time>
      </trkpt>
      <trkpt lat="46.34046" lon="1.65253">
        <ele>332</ele>
        <time>2022-07-09T06:24:57Z</time>
      </trkpt>
      <trkpt lat="46.34035" lon="1.65284">
        <ele>332</ele>
        <time>2022-07-09T06:25:03Z</time>
      </trkpt>
      <trkpt lat="46.34019" lon="1.65319">
        <ele>331.6</ele>
        <time>2022-07-09T06:25:10Z</time>
      </trkpt>
      <trkpt lat="46.34014" lon="1.65324">
        <ele>331.4</ele>
        <time>2022-07-09T06:25:11Z</time>
      </trkpt>
      <trkpt lat="46.34003" lon="1.65353">
        <ele>331.2</ele>
        <time>2022-07-09T06:25:15Z</time>
      </trkpt>
      <trkpt lat="46.33993" lon="1.65377">
        <ele>331.2</ele>
        <time>2022-07-09T06:25:20Z</time>
      </trkpt>
      <trkpt lat="46.33978" lon="1.65411">
        <ele>331.2</ele>
        <time>2022-07-09T06:25:26Z</time>
      </trkpt>
      <trkpt lat="46.33969" lon="1.65441">
        <ele>331.2</ele>
        <time>2022-07-09T06:25:31Z</time>
      </trkpt>
      <trkpt lat="46.33956" lon="1.65473">
        <ele>331.2</ele>
        <time>2022-07-09T06:25:37Z</time>
      </trkpt>
      <trkpt lat="46.33949" lon="1.65495">
        <ele>331</ele>
        <time>2022-07-09T06:25:42Z</time>
      </trkpt>
      <trkpt lat="46.33934" lon="1.65523">
        <ele>331</ele>
        <time>2022-07-09T06:25:47Z</time>
      </trkpt>
      <trkpt lat="46.33922" lon="1.65552">
        <ele>331.2</ele>
        <time>2022-07-09T06:25:52Z</time>
      </trkpt>
      <trkpt lat="46.33903" lon="1.65592">
        <ele>331.4</ele>
        <time>2022-07-09T06:26:01Z</time>
      </trkpt>
      <trkpt lat="46.33892" lon="1.65616">
        <ele>331.4</ele>
        <time>2022-07-09T06:26:07Z</time>
      </trkpt>
      <trkpt lat="46.33887" lon="1.65626">
        <ele>331.4</ele>
        <time>2022-07-09T06:26:12Z</time>
      </trkpt>
      <trkpt lat="46.33884" lon="1.65634">
        <ele>331.4</ele>
        <time>2022-07-09T06:26:17Z</time>
      </trkpt>
      <trkpt lat="46.33874" lon="1.65654">
        <ele>331.6</ele>
        <time>2022-07-09T06:26:22Z</time>
      </trkpt>
      <trkpt lat="46.33858" lon="1.65689">
        <ele>331.6</ele>
        <time>2022-07-09T06:26:30Z</time>
      </trkpt>
      <trkpt lat="46.33842" lon="1.65721">
        <ele>332</ele>
        <time>2022-07-09T06:26:37Z</time>
      </trkpt>
      <trkpt lat="46.33836" lon="1.65742">
        <ele>332.2</ele>
        <time>2022-07-09T06:26:43Z</time>
      </trkpt>
      <trkpt lat="46.33824" lon="1.65769">
        <ele>332.2</ele>
        <time>2022-07-09T06:26:48Z</time>
      </trkpt>
      <trkpt lat="46.33822" lon="1.65776">
        <ele>332.2</ele>
        <time>2022-07-09T06:26:50Z</time>
      </trkpt>
      <trkpt lat="46.33818" lon="1.65785">
        <ele>332.2</ele>
        <time>2022-07-09T06:26:53Z</time>
      </trkpt>
      <trkpt lat="46.33813" lon="1.65805">
        <ele>332.6</ele>
        <time>2022-07-09T06:26:57Z</time>
      </trkpt>
      <trkpt lat="46.33812" lon="1.65809">
        <ele>332.6</ele>
        <time>2022-07-09T06:26:58Z</time>
      </trkpt>
      <trkpt lat="46.33798" lon="1.6583">
        <ele>332.8</ele>
        <time>2022-07-09T06:27:03Z</time>
      </trkpt>
      <trkpt lat="46.33786" lon="1.65856">
        <ele>332.8</ele>
        <time>2022-07-09T06:27:10Z</time>
      </trkpt>
      <trkpt lat="46.33782" lon="1.65862">
        <ele>333</ele>
        <time>2022-07-09T06:27:12Z</time>
      </trkpt>
      <trkpt lat="46.33773" lon="1.65884">
        <ele>333</ele>
        <time>2022-07-09T06:27:16Z</time>
      </trkpt>
      <trkpt lat="46.33768" lon="1.65893">
        <ele>333</ele>
        <time>2022-07-09T06:27:21Z</time>
      </trkpt>
    </trkseg>
  </trk>
</gpx>